createdAt,value
2023-04-22T00:03:10.502Z,6.22
2023-04-22T00:08:13.228Z,6.19
2023-04-22T00:13:15.873Z,6.05
2023-04-22T00:18:19.010Z,5.88
2023-04-22T00:23:21.779Z,6.09
2023-04-22T00:28:24.506Z,6.06
2023-04-22T00:33:27.039Z,5.87
2023-04-22T00:38:29.897Z,5.74
2023-04-22T00:43:32.545Z,5.76
2023-04-22T00:48:39.892Z,5.64
2023-04-22T00:53:42.513Z,5.53
2023-04-22T00:58:45.460Z,5.42
2023-04-22T01:03:50.092Z,5.25
2023-04-22T01:08:52.904Z,5.36
2023-04-22T01:13:55.502Z,5.42
2023-04-22T01:18:58.153Z,5.39
2023-04-22T01:24:03.663Z,5.39
2023-04-22T01:29:06.621Z,5.27
2023-04-22T01:34:09.790Z,5.29
2023-04-22T01:39:12.791Z,5.30
2023-04-22T01:44:16.388Z,5.34
2023-04-22T01:49:18.940Z,5.30
2023-04-22T01:54:21.698Z,5.24
2023-04-22T01:59:26.557Z,5.18
2023-04-22T02:04:29.371Z,5.15
2023-04-22T02:09:34.703Z,5.16
2023-04-22T02:14:37.278Z,5.12
2023-04-22T02:19:40.373Z,5.61
2023-04-22T02:24:43.384Z,7.45
2023-04-22T02:29:46.248Z,9.53
2023-04-22T02:34:49.442Z,11.24
2023-04-22T02:39:51.972Z,12.63
2023-04-22T02:44:54.770Z,12.16
2023-04-22T02:49:57.389Z,10.69
2023-04-22T02:55:01.719Z,9.75
2023-04-22T03:00:06.665Z,9.13
2023-04-22T03:05:10.836Z,9.07
2023-04-22T03:10:13.519Z,8.87
2023-04-22T03:15:18.824Z,9.12
2023-04-22T03:20:23.318Z,9.40
2023-04-22T03:25:26.219Z,9.58
2023-04-22T03:30:31.350Z,9.84
2023-04-22T03:35:34.646Z,9.72
2023-04-22T03:40:37.715Z,9.24
2023-04-22T03:45:51.606Z,8.83
2023-04-22T03:50:59.057Z,8.83
2023-04-22T03:56:04.872Z,8.64
2023-04-22T04:01:11.617Z,8.60
2023-04-22T04:06:16.165Z,8.70
2023-04-22T04:11:18.829Z,8.69
2023-04-22T04:16:23.065Z,8.75
2023-04-22T04:21:33.513Z,8.86
2023-04-22T04:26:37.951Z,9.04
2023-04-22T04:31:51.052Z,9.08
2023-04-22T04:36:54.834Z,9.17
2023-04-22T04:42:04.157Z,9.44
2023-04-22T04:47:15.197Z,9.64
2023-04-22T04:52:18.312Z,9.82
2023-04-22T04:57:21.080Z,10.02
2023-04-22T05:02:24.389Z,10.22
2023-04-22T05:07:27.235Z,10.54
2023-04-22T05:12:30.009Z,10.73
2023-04-22T05:17:34.638Z,10.90
2023-04-22T05:22:38.029Z,11.10
2023-04-22T05:27:41.959Z,11.28
2023-04-22T05:32:45.839Z,11.39
2023-04-22T05:37:49.046Z,11.62
2023-04-22T05:42:51.703Z,11.83
2023-04-22T05:47:54.558Z,11.99
2023-04-22T05:52:59.005Z,12.40
2023-04-22T05:58:03.657Z,12.33
2023-04-22T06:03:20.777Z,12.11
2023-04-22T06:08:23.760Z,12.09
2023-04-22T06:13:27.617Z,12.18
2023-04-22T06:18:30.301Z,12.68
2023-04-22T06:23:32.968Z,13.27
2023-04-22T06:28:35.619Z,13.52
2023-04-22T06:33:43.367Z,13.05
2023-04-22T06:38:46.078Z,12.37
2023-04-22T06:44:07.122Z,12.38
2023-04-22T06:49:39.734Z,12.88
2023-04-22T06:55:09.074Z,13.57
2023-04-22T07:00:12.457Z,13.83
2023-04-22T07:05:17.226Z,14.03
2023-04-22T07:10:21.245Z,13.44
2023-04-22T07:15:46.256Z,13.74
2023-04-22T07:20:48.930Z,14.11
2023-04-22T07:25:51.540Z,14.63
2023-04-22T07:30:54.600Z,14.26
2023-04-22T07:35:57.285Z,13.88
2023-04-22T07:40:59.851Z,13.20
2023-04-22T07:46:02.868Z,13.54
2023-04-22T07:51:06.101Z,13.59
2023-04-22T07:56:09.189Z,13.60
2023-04-22T08:01:11.743Z,13.97
2023-04-22T08:06:14.554Z,13.30
2023-04-22T08:11:17.159Z,14.20
2023-04-22T08:16:19.955Z,14.59
2023-04-22T08:21:22.534Z,14.78
2023-04-22T08:26:25.860Z,15.27
2023-04-22T08:31:28.525Z,14.14
2023-04-22T08:36:32.056Z,14.95
2023-04-22T08:41:35.906Z,15.37
2023-04-22T08:46:39.527Z,14.68
2023-04-22T08:51:43.631Z,14.11
2023-04-22T08:56:46.293Z,13.63
2023-04-22T09:01:53.364Z,13.35
2023-04-22T09:06:56.842Z,13.89
2023-04-22T09:11:59.448Z,15.04
2023-04-22T09:17:03.876Z,15.88
2023-04-22T09:22:10.643Z,16.09
2023-04-22T09:27:13.507Z,15.38
2023-04-22T09:32:17.193Z,15.10
2023-04-22T09:37:33.071Z,15.12
2023-04-22T09:42:49.813Z,15.54
2023-04-22T09:47:52.571Z,15.45
2023-04-22T09:53:18.961Z,15.45
2023-04-22T09:58:23.991Z,15.41
2023-04-22T10:03:26.837Z,15.19
2023-04-22T10:08:30.745Z,14.60
2023-04-22T10:13:33.421Z,14.33
2023-04-22T10:18:39.428Z,14.56
2023-04-22T10:23:49.977Z,15.71
2023-04-22T10:28:52.624Z,16.87
2023-04-22T10:34:11.149Z,16.42
2023-04-22T10:39:17.722Z,15.52
2023-04-22T10:44:22.611Z,14.82
2023-04-22T10:49:29.229Z,15.40
2023-04-22T10:54:36.512Z,15.25
2023-04-22T10:59:56.347Z,15.39
2023-04-22T11:05:22.870Z,16.39
2023-04-22T11:10:42.970Z,17.10
2023-04-22T11:15:51.529Z,16.70
2023-04-22T11:20:54.723Z,15.00
2023-04-22T11:25:59.720Z,14.88
2023-04-22T11:31:04.227Z,15.97
2023-04-22T11:36:15.775Z,16.64
2023-04-22T11:41:23.261Z,15.31
2023-04-22T11:46:38.444Z,14.66
2023-04-22T11:51:57.326Z,14.01
2023-04-22T11:57:08.612Z,15.03
2023-04-22T12:02:11.509Z,16.14
2023-04-22T12:07:15.491Z,16.65
2023-04-22T12:12:18.146Z,16.66
2023-04-22T12:17:24.770Z,16.28
2023-04-22T12:22:29.713Z,16.29
2023-04-22T12:27:32.351Z,16.32
2023-04-22T12:32:35.000Z,16.24
2023-04-22T12:37:37.613Z,16.18
2023-04-22T12:42:40.220Z,16.11
2023-04-22T12:47:43.125Z,16.52
2023-04-22T12:52:46.262Z,16.73
2023-04-22T12:57:51.464Z,16.68
2023-04-22T13:02:57.288Z,16.73
2023-04-22T13:08:07.219Z,16.59
2023-04-22T13:13:18.388Z,15.85
2023-04-22T13:18:23.523Z,15.10
2023-04-22T13:23:27.048Z,15.43
2023-04-22T13:28:31.030Z,15.58
2023-04-22T13:33:33.543Z,15.94
2023-04-22T13:38:36.634Z,16.25
2023-04-22T13:43:39.171Z,16.25
2023-04-22T13:48:41.663Z,15.89
2023-04-22T13:53:44.332Z,15.35
2023-04-22T13:58:47.015Z,15.05
2023-04-22T14:03:49.845Z,14.72
2023-04-22T14:08:52.919Z,14.66
2023-04-22T14:13:55.724Z,14.56
2023-04-22T14:18:58.431Z,15.02
2023-04-22T14:24:01.015Z,15.24
2023-04-22T14:29:03.918Z,15.00
2023-04-22T14:34:06.518Z,14.87
2023-04-22T14:39:09.325Z,14.79
2023-04-22T14:44:14.470Z,14.93
2023-04-22T14:49:17.049Z,14.85
2023-04-22T14:54:19.637Z,14.77
2023-04-22T14:59:22.612Z,14.59
2023-04-22T15:04:25.383Z,14.45
2023-04-22T15:09:28.035Z,14.32
2023-04-22T15:14:32.269Z,14.26
2023-04-22T15:19:35.066Z,14.23
2023-04-22T15:24:37.778Z,14.26
2023-04-22T15:29:45.010Z,14.21
2023-04-22T15:34:47.759Z,14.30
2023-04-22T15:39:50.472Z,14.34
2023-04-22T15:44:53.088Z,14.30
2023-04-22T15:49:57.808Z,14.35
2023-04-22T15:55:03.616Z,14.31
2023-04-22T16:00:13.094Z,14.19
2023-04-22T16:05:18.191Z,13.80
2023-04-22T16:10:21.336Z,13.81
2023-04-22T16:15:26.262Z,13.72
2023-04-22T16:20:29.620Z,13.59
2023-04-22T16:25:32.364Z,13.33
2023-04-22T16:30:35.048Z,13.31
2023-04-22T16:35:37.732Z,12.92
2023-04-22T16:40:40.378Z,13.10
2023-04-22T16:45:42.962Z,12.92
2023-04-22T16:50:45.625Z,12.82
2023-04-22T16:55:48.191Z,12.67
2023-04-22T17:00:51.246Z,12.52
2023-04-22T17:05:54.114Z,12.35
2023-04-22T17:10:56.758Z,12.13
2023-04-22T17:15:59.507Z,11.78
2023-04-22T17:21:02.171Z,11.45
2023-04-22T17:26:04.954Z,11.19
2023-04-22T17:31:08.050Z,11.03
2023-04-22T17:36:11.364Z,10.80
2023-04-22T17:41:14.036Z,10.63
2023-04-22T17:46:16.683Z,10.60
2023-04-22T17:51:19.341Z,10.45
2023-04-22T17:56:22.242Z,10.33
2023-04-22T18:01:25.696Z,10.24
2023-04-22T18:06:29.176Z,10.04
2023-04-22T18:11:32.431Z,9.86
2023-04-22T18:16:35.226Z,9.81
2023-04-22T18:21:41.613Z,9.68
2023-04-22T18:26:49.478Z,9.50
2023-04-22T18:31:52.232Z,9.39
2023-04-22T18:36:55.362Z,9.43
2023-04-22T18:41:57.923Z,9.35
2023-04-22T18:47:00.578Z,9.28
2023-04-22T18:52:03.307Z,9.19
2023-04-22T18:57:06.114Z,9.12
2023-04-22T19:02:13.022Z,8.60
2023-04-22T19:07:15.853Z,8.91
2023-04-22T19:12:19.709Z,8.98
2023-04-22T19:17:22.406Z,8.88
2023-04-22T19:22:25.311Z,8.72
2023-04-22T19:27:28.030Z,8.66
2023-04-22T19:32:31.315Z,8.42
2023-04-22T19:37:34.170Z,8.61
2023-04-22T19:42:36.856Z,8.57
2023-04-22T19:47:39.923Z,8.41
2023-04-22T19:52:47.728Z,8.27
2023-04-22T19:57:51.518Z,8.18
2023-04-22T20:02:54.451Z,8.02
2023-04-22T20:08:01.356Z,8.18
2023-04-22T20:13:07.474Z,8.06
2023-04-22T20:18:12.479Z,8.14
2023-04-22T20:23:17.609Z,8.10
2023-04-22T20:28:31.674Z,7.98
2023-04-22T20:33:35.833Z,7.76
2023-04-22T20:38:38.781Z,7.65
2023-04-22T20:43:45.007Z,7.66
2023-04-22T20:48:48.001Z,7.65
2023-04-22T20:53:51.420Z,7.74
2023-04-22T20:58:54.096Z,7.65
2023-04-22T21:04:00.059Z,7.53
2023-04-22T21:09:04.235Z,7.44
2023-04-22T21:14:07.761Z,7.47
2023-04-22T21:19:12.376Z,7.39
2023-04-22T21:24:15.854Z,7.35
2023-04-22T21:29:19.194Z,7.37
2023-04-22T21:34:22.237Z,7.29
2023-04-22T21:39:24.956Z,7.49
2023-04-22T21:44:28.496Z,7.54
2023-04-22T21:49:31.911Z,7.29
2023-04-22T21:54:34.607Z,7.37
2023-04-22T21:59:38.025Z,7.35
2023-04-22T22:04:42.717Z,7.25
2023-04-22T22:09:46.784Z,7.05
2023-04-22T22:14:49.312Z,6.95
2023-04-22T22:19:52.231Z,6.85
2023-04-22T22:24:54.835Z,6.74
2023-04-22T22:29:57.483Z,6.55
2023-04-22T22:35:00.193Z,6.46
2023-04-22T22:40:03.246Z,6.36
2023-04-22T22:45:06.849Z,6.37
2023-04-22T22:50:09.667Z,6.32
2023-04-22T22:55:12.172Z,6.40
2023-04-22T23:00:15.133Z,6.39
2023-04-22T23:05:17.850Z,6.24
2023-04-22T23:10:20.960Z,6.11
2023-04-22T23:15:23.675Z,6.07
2023-04-22T23:20:27.367Z,5.91
2023-04-22T23:25:30.324Z,5.98
2023-04-22T23:30:33.290Z,6.07
2023-04-22T23:35:37.792Z,6.05
2023-04-22T23:40:40.432Z,5.97
2023-04-22T23:45:43.252Z,5.85
2023-04-22T23:50:45.965Z,5.97
2023-04-22T23:55:48.873Z,5.81
